sensor_id;sensor_type;location;lat;lon;timestamp;P1;durP1;ratioP1;P2;durP2;ratioP2
84713;SDS011;74938;42.658;23.248;2023-12-20T00:01:00;9.07;;;4.82;;
84713;SDS011;74938;42.658;23.248;2023-12-20T00:03:25;15.75;;;5.28;;
84713;SDS011;74938;42.658;23.248;2023-12-20T00:05:51;11.38;;;5.72;;
84713;SDS011;74938;42.658;23.248;2023-12-20T00:08:16;12.57;;;5.30;;
84713;SDS011;74938;42.658;23.248;2023-12-20T00:10:43;9.73;;;5.55;;
84713;SDS011;74938;42.658;23.248;2023-12-20T00:13:08;10.25;;;5.88;;
84713;SDS011;74938;42.658;23.248;2023-12-20T00:15:34;13.10;;;5.15;;
84713;SDS011;74938;42.658;23.248;2023-12-20T00:18:00;10.90;;;4.80;;
84713;SDS011;74938;42.658;23.248;2023-12-20T00:20:26;12.18;;;4.90;;
84713;SDS011;74938;42.658;23.248;2023-12-20T00:22:52;12.15;;;4.82;;
84713;SDS011;74938;42.658;23.248;2023-12-20T00:25:18;13.35;;;5.22;;
84713;SDS011;74938;42.658;23.248;2023-12-20T00:27:44;13.27;;;5.72;;
84713;SDS011;74938;42.658;23.248;2023-12-20T00:30:09;16.42;;;7.53;;
84713;SDS011;74938;42.658;23.248;2023-12-20T00:32:36;20.30;;;6.95;;
84713;SDS011;74938;42.658;23.248;2023-12-20T00:35:01;12.10;;;5.20;;
84713;SDS011;74938;42.658;23.248;2023-12-20T00:37:27;12.35;;;5.18;;
84713;SDS011;74938;42.658;23.248;2023-12-20T00:39:52;15.50;;;6.55;;
84713;SDS011;74938;42.658;23.248;2023-12-20T00:42:18;15.07;;;6.28;;
84713;SDS011;74938;42.658;23.248;2023-12-20T00:44:43;18.52;;;7.60;;
84713;SDS011;74938;42.658;23.248;2023-12-20T00:47:11;11.63;;;6.80;;
84713;SDS011;74938;42.658;23.248;2023-12-20T00:49:38;12.75;;;6.20;;
84713;SDS011;74938;42.658;23.248;2023-12-20T00:52:04;11.15;;;5.25;;
84713;SDS011;74938;42.658;23.248;2023-12-20T00:54:29;12.38;;;6.35;;
84713;SDS011;74938;42.658;23.248;2023-12-20T00:56:55;16.30;;;6.05;;
84713;SDS011;74938;42.658;23.248;2023-12-20T00:59:21;13.38;;;5.97;;
84713;SDS011;74938;42.658;23.248;2023-12-20T01:01:46;14.43;;;6.05;;
84713;SDS011;74938;42.658;23.248;2023-12-20T01:04:11;12.73;;;5.20;;
84713;SDS011;74938;42.658;23.248;2023-12-20T01:06:37;12.57;;;4.25;;
84713;SDS011;74938;42.658;23.248;2023-12-20T01:09:03;8.63;;;3.75;;
84713;SDS011;74938;42.658;23.248;2023-12-20T01:11:29;7.13;;;3.47;;
84713;SDS011;74938;42.658;23.248;2023-12-20T01:13:54;6.60;;;3.15;;
84713;SDS011;74938;42.658;23.248;2023-12-20T01:16:20;7.47;;;3.08;;
84713;SDS011;74938;42.658;23.248;2023-12-20T01:18:46;9.05;;;3.67;;
84713;SDS011;74938;42.658;23.248;2023-12-20T01:21:11;8.85;;;3.95;;
84713;SDS011;74938;42.658;23.248;2023-12-20T01:23:36;10.18;;;5.50;;
84713;SDS011;74938;42.658;23.248;2023-12-20T01:26:02;14.70;;;6.68;;
84713;SDS011;74938;42.658;23.248;2023-12-20T01:28:29;13.48;;;6.57;;
84713;SDS011;74938;42.658;23.248;2023-12-20T01:30:54;14.18;;;6.90;;
84713;SDS011;74938;42.658;23.248;2023-12-20T01:33:20;15.23;;;6.45;;
84713;SDS011;74938;42.658;23.248;2023-12-20T01:35:48;12.80;;;6.43;;
84713;SDS011;74938;42.658;23.248;2023-12-20T01:38:14;13.77;;;6.60;;
84713;SDS011;74938;42.658;23.248;2023-12-20T01:40:39;12.23;;;6.53;;
84713;SDS011;74938;42.658;23.248;2023-12-20T01:43:07;12.00;;;6.25;;
84713;SDS011;74938;42.658;23.248;2023-12-20T01:45:33;14.30;;;6.57;;
84713;SDS011;74938;42.658;23.248;2023-12-20T01:47:59;15.48;;;6.32;;
84713;SDS011;74938;42.658;23.248;2023-12-20T01:50:26;12.20;;;6.25;;
84713;SDS011;74938;42.658;23.248;2023-12-20T01:52:53;15.23;;;6.72;;
84713;SDS011;74938;42.658;23.248;2023-12-20T01:57:48;9.43;;;4.80;;
84713;SDS011;74938;42.658;23.248;2023-12-20T02:00:13;11.77;;;5.72;;
84713;SDS011;74938;42.658;23.248;2023-12-20T02:02:40;10.45;;;4.80;;
84713;SDS011;74938;42.658;23.248;2023-12-20T02:05:06;10.48;;;5.43;;
84713;SDS011;74938;42.658;23.248;2023-12-20T02:07:32;11.10;;;4.97;;
84713;SDS011;74938;42.658;23.248;2023-12-20T02:09:58;13.32;;;5.88;;
84713;SDS011;74938;42.658;23.248;2023-12-20T02:12:23;12.13;;;6.07;;
84713;SDS011;74938;42.658;23.248;2023-12-20T02:14:49;11.38;;;5.57;;
84713;SDS011;74938;42.658;23.248;2023-12-20T02:17:15;11.43;;;5.57;;
84713;SDS011;74938;42.658;23.248;2023-12-20T02:19:41;12.75;;;5.43;;
84713;SDS011;74938;42.658;23.248;2023-12-20T02:22:07;8.18;;;4.60;;
84713;SDS011;74938;42.658;23.248;2023-12-20T02:24:35;10.85;;;5.93;;
84713;SDS011;74938;42.658;23.248;2023-12-20T02:27:00;9.68;;;4.78;;
84713;SDS011;74938;42.658;23.248;2023-12-20T02:29:26;13.18;;;6.00;;
84713;SDS011;74938;42.658;23.248;2023-12-20T02:31:52;10.40;;;4.90;;
84713;SDS011;74938;42.658;23.248;2023-12-20T02:34:17;12.07;;;5.40;;
84713;SDS011;74938;42.658;23.248;2023-12-20T02:36:43;11.05;;;5.65;;
84713;SDS011;74938;42.658;23.248;2023-12-20T02:39:08;16.27;;;6.05;;
84713;SDS011;74938;42.658;23.248;2023-12-20T02:41:33;13.10;;;6.75;;
84713;SDS011;74938;42.658;23.248;2023-12-20T02:43:59;11.43;;;5.25;;
84713;SDS011;74938;42.658;23.248;2023-12-20T02:46:25;10.88;;;6.15;;
84713;SDS011;74938;42.658;23.248;2023-12-20T02:48:50;13.38;;;5.25;;
84713;SDS011;74938;42.658;23.248;2023-12-20T02:51:16;10.82;;;5.80;;
84713;SDS011;74938;42.658;23.248;2023-12-20T02:53:41;10.70;;;4.53;;
84713;SDS011;74938;42.658;23.248;2023-12-20T02:56:06;11.48;;;4.88;;
84713;SDS011;74938;42.658;23.248;2023-12-20T02:58:32;11.98;;;5.75;;
84713;SDS011;74938;42.658;23.248;2023-12-20T03:00:57;9.10;;;4.60;;
84713;SDS011;74938;42.658;23.248;2023-12-20T03:03:23;11.27;;;5.80;;
84713;SDS011;74938;42.658;23.248;2023-12-20T03:05:48;13.25;;;6.63;;
84713;SDS011;74938;42.658;23.248;2023-12-20T03:08:13;16.15;;;6.13;;
84713;SDS011;74938;42.658;23.248;2023-12-20T03:10:39;13.95;;;6.57;;
84713;SDS011;74938;42.658;23.248;2023-12-20T03:13:04;9.90;;;5.32;;
84713;SDS011;74938;42.658;23.248;2023-12-20T03:15:29;33.38;;;12.43;;
84713;SDS011;74938;42.658;23.248;2023-12-20T03:17:55;30.13;;;12.90;;
84713;SDS011;74938;42.658;23.248;2023-12-20T03:20:20;20.52;;;9.00;;
84713;SDS011;74938;42.658;23.248;2023-12-20T03:22:45;10.40;;;5.63;;
84713;SDS011;74938;42.658;23.248;2023-12-20T03:25:11;10.88;;;5.35;;
84713;SDS011;74938;42.658;23.248;2023-12-20T03:27:37;9.32;;;4.95;;
84713;SDS011;74938;42.658;23.248;2023-12-20T03:30:04;15.55;;;5.07;;
84713;SDS011;74938;42.658;23.248;2023-12-20T03:32:30;11.35;;;5.15;;
84713;SDS011;74938;42.658;23.248;2023-12-20T03:34:55;10.25;;;4.85;;
84713;SDS011;74938;42.658;23.248;2023-12-20T03:37:21;8.65;;;3.90;;
84713;SDS011;74938;42.658;23.248;2023-12-20T03:39:47;7.22;;;4.13;;
84713;SDS011;74938;42.658;23.248;2023-12-20T03:42:12;13.32;;;5.07;;
84713;SDS011;74938;42.658;23.248;2023-12-20T03:44:41;17.98;;;7.20;;
84713;SDS011;74938;42.658;23.248;2023-12-20T03:47:06;13.60;;;6.07;;
84713;SDS011;74938;42.658;23.248;2023-12-20T03:49:31;15.15;;;6.53;;
84713;SDS011;74938;42.658;23.248;2023-12-20T03:51:57;15.18;;;6.45;;
84713;SDS011;74938;42.658;23.248;2023-12-20T03:54:22;14.05;;;5.63;;
84713;SDS011;74938;42.658;23.248;2023-12-20T03:56:49;13.68;;;5.50;;
84713;SDS011;74938;42.658;23.248;2023-12-20T03:59:15;10.55;;;5.45;;
84713;SDS011;74938;42.658;23.248;2023-12-20T04:01:43;12.77;;;5.88;;
84713;SDS011;74938;42.658;23.248;2023-12-20T04:04:12;9.98;;;5.13;;
84713;SDS011;74938;42.658;23.248;2023-12-20T04:06:38;10.52;;;6.53;;
84713;SDS011;74938;42.658;23.248;2023-12-20T04:09:03;13.95;;;5.65;;
84713;SDS011;74938;42.658;23.248;2023-12-20T04:11:29;11.00;;;5.95;;
84713;SDS011;74938;42.658;23.248;2023-12-20T04:13:54;11.75;;;5.78;;
84713;SDS011;74938;42.658;23.248;2023-12-20T04:16:19;13.68;;;6.30;;
84713;SDS011;74938;42.658;23.248;2023-12-20T04:18:45;14.98;;;6.07;;
84713;SDS011;74938;42.658;23.248;2023-12-20T04:21:10;16.52;;;6.32;;
84713;SDS011;74938;42.658;23.248;2023-12-20T04:23:35;14.43;;;6.30;;
84713;SDS011;74938;42.658;23.248;2023-12-20T04:26:01;13.38;;;5.97;;
84713;SDS011;74938;42.658;23.248;2023-12-20T04:28:26;11.88;;;6.25;;
84713;SDS011;74938;42.658;23.248;2023-12-20T04:30:55;15.15;;;7.28;;
84713;SDS011;74938;42.658;23.248;2023-12-20T04:33:20;16.73;;;8.25;;
84713;SDS011;74938;42.658;23.248;2023-12-20T04:35:46;10.73;;;6.25;;
84713;SDS011;74938;42.658;23.248;2023-12-20T04:38:11;12.10;;;6.43;;
84713;SDS011;74938;42.658;23.248;2023-12-20T04:40:37;10.45;;;6.22;;
84713;SDS011;74938;42.658;23.248;2023-12-20T04:43:02;16.70;;;6.68;;
84713;SDS011;74938;42.658;23.248;2023-12-20T04:45:28;10.90;;;5.70;;
84713;SDS011;74938;42.658;23.248;2023-12-20T04:47:53;14.63;;;5.75;;
84713;SDS011;74938;42.658;23.248;2023-12-20T04:50:18;16.08;;;6.35;;
84713;SDS011;74938;42.658;23.248;2023-12-20T04:52:44;15.90;;;8.77;;
84713;SDS011;74938;42.658;23.248;2023-12-20T04:55:10;23.02;;;10.70;;
84713;SDS011;74938;42.658;23.248;2023-12-20T04:57:36;18.42;;;8.93;;
84713;SDS011;74938;42.658;23.248;2023-12-20T05:00:01;15.90;;;8.77;;
84713;SDS011;74938;42.658;23.248;2023-12-20T05:02:27;19.73;;;10.73;;
84713;SDS011;74938;42.658;23.248;2023-12-20T05:04:52;28.55;;;13.63;;
84713;SDS011;74938;42.658;23.248;2023-12-20T05:07:18;24.40;;;13.05;;
84713;SDS011;74938;42.658;23.248;2023-12-20T05:09:43;25.38;;;13.30;;
84713;SDS011;74938;42.658;23.248;2023-12-20T05:12:08;27.02;;;12.35;;
84713;SDS011;74938;42.658;23.248;2023-12-20T05:14:34;28.02;;;12.40;;
84713;SDS011;74938;42.658;23.248;2023-12-20T05:16:59;26.67;;;13.55;;
84713;SDS011;74938;42.658;23.248;2023-12-20T05:19:25;22.98;;;12.15;;
84713;SDS011;74938;42.658;23.248;2023-12-20T05:21:51;27.73;;;14.32;;
84713;SDS011;74938;42.658;23.248;2023-12-20T05:24:16;28.98;;;14.43;;
84713;SDS011;74938;42.658;23.248;2023-12-20T05:26:42;28.13;;;13.32;;
84713;SDS011;74938;42.658;23.248;2023-12-20T05:29:07;29.73;;;15.65;;
84713;SDS011;74938;42.658;23.248;2023-12-20T05:31:33;32.03;;;14.20;;
84713;SDS011;74938;42.658;23.248;2023-12-20T05:33:59;24.85;;;12.95;;
84713;SDS011;74938;42.658;23.248;2023-12-20T05:36:24;26.02;;;14.80;;
84713;SDS011;74938;42.658;23.248;2023-12-20T05:38:49;32.70;;;15.85;;
84713;SDS011;74938;42.658;23.248;2023-12-20T05:41:15;29.50;;;15.98;;
84713;SDS011;74938;42.658;23.248;2023-12-20T05:43:41;31.20;;;16.20;;
84713;SDS011;74938;42.658;23.248;2023-12-20T05:46:06;32.90;;;17.15;;
84713;SDS011;74938;42.658;23.248;2023-12-20T05:48:31;34.28;;;18.15;;
84713;SDS011;74938;42.658;23.248;2023-12-20T05:50:57;31.45;;;15.98;;
84713;SDS011;74938;42.658;23.248;2023-12-20T05:53:22;30.48;;;17.65;;
84713;SDS011;74938;42.658;23.248;2023-12-20T05:55:48;29.38;;;15.98;;
84713;SDS011;74938;42.658;23.248;2023-12-20T05:58:13;30.45;;;16.90;;
84713;SDS011;74938;42.658;23.248;2023-12-20T06:00:38;33.95;;;17.10;;
84713;SDS011;74938;42.658;23.248;2023-12-20T06:03:04;32.05;;;15.15;;
84713;SDS011;74938;42.658;23.248;2023-12-20T06:05:30;32.25;;;17.33;;
84713;SDS011;74938;42.658;23.248;2023-12-20T06:07:56;34.83;;;18.05;;
84713;SDS011;74938;42.658;23.248;2023-12-20T06:10:26;31.25;;;16.25;;
84713;SDS011;74938;42.658;23.248;2023-12-20T06:12:52;33.28;;;17.02;;
84713;SDS011;74938;42.658;23.248;2023-12-20T06:15:17;25.00;;;14.30;;
84713;SDS011;74938;42.658;23.248;2023-12-20T06:17:42;27.52;;;15.52;;
84713;SDS011;74938;42.658;23.248;2023-12-20T06:20:08;35.03;;;16.98;;
84713;SDS011;74938;42.658;23.248;2023-12-20T06:22:34;31.15;;;16.52;;
84713;SDS011;74938;42.658;23.248;2023-12-20T06:25:01;40.15;;;18.65;;
84713;SDS011;74938;42.658;23.248;2023-12-20T06:27:27;38.47;;;19.42;;
84713;SDS011;74938;42.658;23.248;2023-12-20T06:29:53;48.58;;;24.77;;
84713;SDS011;74938;42.658;23.248;2023-12-20T06:32:18;61.63;;;30.58;;
84713;SDS011;74938;42.658;23.248;2023-12-20T06:34:44;43.00;;;22.35;;
84713;SDS011;74938;42.658;23.248;2023-12-20T06:37:09;42.35;;;20.55;;
84713;SDS011;74938;42.658;23.248;2023-12-20T06:39:35;38.40;;;22.23;;
84713;SDS011;74938;42.658;23.248;2023-12-20T06:42:00;46.30;;;21.58;;
84713;SDS011;74938;42.658;23.248;2023-12-20T06:44:26;37.85;;;18.98;;
84713;SDS011;74938;42.658;23.248;2023-12-20T06:46:51;51.22;;;22.27;;
84713;SDS011;74938;42.658;23.248;2023-12-20T06:49:17;56.92;;;29.10;;
84713;SDS011;74938;42.658;23.248;2023-12-20T06:51:43;64.85;;;30.55;;
84713;SDS011;74938;42.658;23.248;2023-12-20T06:54:08;60.25;;;30.70;;
84713;SDS011;74938;42.658;23.248;2023-12-20T06:56:34;56.85;;;30.23;;
84713;SDS011;74938;42.658;23.248;2023-12-20T06:58:59;50.15;;;25.48;;
84713;SDS011;74938;42.658;23.248;2023-12-20T07:01:25;48.17;;;26.25;;
84713;SDS011;74938;42.658;23.248;2023-12-20T07:03:50;42.42;;;24.13;;
84713;SDS011;74938;42.658;23.248;2023-12-20T07:06:15;48.33;;;26.67;;
84713;SDS011;74938;42.658;23.248;2023-12-20T07:08:42;42.85;;;23.65;;
84713;SDS011;74938;42.658;23.248;2023-12-20T07:11:07;47.38;;;23.23;;
84713;SDS011;74938;42.658;23.248;2023-12-20T07:13:33;51.10;;;24.83;;
84713;SDS011;74938;42.658;23.248;2023-12-20T07:15:58;47.88;;;27.77;;
84713;SDS011;74938;42.658;23.248;2023-12-20T07:18:24;61.15;;;30.35;;
84713;SDS011;74938;42.658;23.248;2023-12-20T07:20:49;57.13;;;29.50;;
84713;SDS011;74938;42.658;23.248;2023-12-20T07:23:15;62.47;;;28.95;;
84713;SDS011;74938;42.658;23.248;2023-12-20T07:25:40;57.88;;;29.02;;
84713;SDS011;74938;42.658;23.248;2023-12-20T07:28:05;62.97;;;31.38;;
84713;SDS011;74938;42.658;23.248;2023-12-20T07:30:31;65.75;;;30.88;;
84713;SDS011;74938;42.658;23.248;2023-12-20T07:32:56;84.47;;;42.53;;
84713;SDS011;74938;42.658;23.248;2023-12-20T07:35:23;83.03;;;39.38;;
84713;SDS011;74938;42.658;23.248;2023-12-20T07:37:50;71.32;;;37.63;;
84713;SDS011;74938;42.658;23.248;2023-12-20T07:40:15;71.18;;;36.70;;
84713;SDS011;74938;42.658;23.248;2023-12-20T07:42:42;67.82;;;36.30;;
84713;SDS011;74938;42.658;23.248;2023-12-20T07:45:07;71.40;;;36.20;;
84713;SDS011;74938;42.658;23.248;2023-12-20T07:47:34;93.80;;;45.75;;
84713;SDS011;74938;42.658;23.248;2023-12-20T07:49:59;93.90;;;43.58;;
84713;SDS011;74938;42.658;23.248;2023-12-20T07:52:24;97.38;;;47.90;;
84713;SDS011;74938;42.658;23.248;2023-12-20T07:54:51;93.25;;;45.47;;
84713;SDS011;74938;42.658;23.248;2023-12-20T07:57:16;95.97;;;46.47;;
84713;SDS011;74938;42.658;23.248;2023-12-20T07:59:42;91.60;;;47.28;;
84713;SDS011;74938;42.658;23.248;2023-12-20T08:02:09;95.55;;;43.97;;
84713;SDS011;74938;42.658;23.248;2023-12-20T08:04:34;85.80;;;40.78;;
84713;SDS011;74938;42.658;23.248;2023-12-20T08:07:00;83.47;;;37.95;;
84713;SDS011;74938;42.658;23.248;2023-12-20T08:09:25;75.97;;;36.60;;
84713;SDS011;74938;42.658;23.248;2023-12-20T08:11:51;87.03;;;41.70;;
84713;SDS011;74938;42.658;23.248;2023-12-20T08:14:16;87.53;;;40.35;;
84713;SDS011;74938;42.658;23.248;2023-12-20T08:16:41;86.78;;;36.88;;
84713;SDS011;74938;42.658;23.248;2023-12-20T08:19:07;75.25;;;37.03;;
84713;SDS011;74938;42.658;23.248;2023-12-20T08:21:32;76.82;;;36.67;;
84713;SDS011;74938;42.658;23.248;2023-12-20T08:23:58;79.88;;;39.88;;
84713;SDS011;74938;42.658;23.248;2023-12-20T08:26:25;73.25;;;38.60;;
84713;SDS011;74938;42.658;23.248;2023-12-20T08:28:51;80.85;;;41.97;;
84713;SDS011;74938;42.658;23.248;2023-12-20T08:31:17;77.32;;;38.80;;
84713;SDS011;74938;42.658;23.248;2023-12-20T08:33:46;80.72;;;39.67;;
84713;SDS011;74938;42.658;23.248;2023-12-20T08:36:13;86.35;;;45.78;;
84713;SDS011;74938;42.658;23.248;2023-12-20T08:38:38;83.35;;;43.72;;
84713;SDS011;74938;42.658;23.248;2023-12-20T08:41:04;79.45;;;43.88;;
84713;SDS011;74938;42.658;23.248;2023-12-20T08:43:35;91.38;;;46.28;;
84713;SDS011;74938;42.658;23.248;2023-12-20T08:46:01;90.85;;;45.42;;
84713;SDS011;74938;42.658;23.248;2023-12-20T08:48:26;92.80;;;45.60;;
84713;SDS011;74938;42.658;23.248;2023-12-20T08:50:52;98.53;;;44.28;;
84713;SDS011;74938;42.658;23.248;2023-12-20T08:53:18;99.00;;;47.50;;
84713;SDS011;74938;42.658;23.248;2023-12-20T08:55:44;105.30;;;45.63;;
84713;SDS011;74938;42.658;23.248;2023-12-20T08:58:09;103.28;;;47.38;;
84713;SDS011;74938;42.658;23.248;2023-12-20T09:00:35;97.80;;;45.38;;
84713;SDS011;74938;42.658;23.248;2023-12-20T09:03:01;125.55;;;47.97;;
84713;SDS011;74938;42.658;23.248;2023-12-20T09:05:27;119.43;;;51.35;;
84713;SDS011;74938;42.658;23.248;2023-12-20T09:07:52;111.65;;;48.58;;
84713;SDS011;74938;42.658;23.248;2023-12-20T09:10:17;119.45;;;48.63;;
84713;SDS011;74938;42.658;23.248;2023-12-20T09:15:13;115.68;;;47.72;;
84713;SDS011;74938;42.658;23.248;2023-12-20T09:17:38;111.90;;;49.38;;
84713;SDS011;74938;42.658;23.248;2023-12-20T09:20:04;116.63;;;50.72;;
84713;SDS011;74938;42.658;23.248;2023-12-20T09:22:32;104.82;;;47.00;;
84713;SDS011;74938;42.658;23.248;2023-12-20T09:24:57;122.88;;;51.28;;
84713;SDS011;74938;42.658;23.248;2023-12-20T09:27:23;115.45;;;48.15;;
84713;SDS011;74938;42.658;23.248;2023-12-20T09:29:48;125.85;;;50.92;;
84713;SDS011;74938;42.658;23.248;2023-12-20T09:32:14;116.35;;;47.45;;
84713;SDS011;74938;42.658;23.248;2023-12-20T09:34:40;115.68;;;46.80;;
84713;SDS011;74938;42.658;23.248;2023-12-20T09:37:06;119.68;;;51.90;;
84713;SDS011;74938;42.658;23.248;2023-12-20T09:39:32;114.50;;;46.60;;
84713;SDS011;74938;42.658;23.248;2023-12-20T09:42:04;114.55;;;49.63;;
84713;SDS011;74938;42.658;23.248;2023-12-20T09:44:30;129.05;;;49.95;;
84713;SDS011;74938;42.658;23.248;2023-12-20T09:46:56;136.00;;;53.20;;
84713;SDS011;74938;42.658;23.248;2023-12-20T09:49:22;128.48;;;51.78;;
84713;SDS011;74938;42.658;23.248;2023-12-20T09:51:50;130.15;;;55.95;;
84713;SDS011;74938;42.658;23.248;2023-12-20T09:54:18;135.23;;;57.17;;
84713;SDS011;74938;42.658;23.248;2023-12-20T09:56:46;138.30;;;56.92;;
84713;SDS011;74938;42.658;23.248;2023-12-20T09:59:13;195.57;;;77.20;;
84713;SDS011;74938;42.658;23.248;2023-12-20T10:01:42;175.27;;;74.25;;
84713;SDS011;74938;42.658;23.248;2023-12-20T10:04:08;133.30;;;59.28;;
84713;SDS011;74938;42.658;23.248;2023-12-20T10:06:38;136.48;;;59.00;;
84713;SDS011;74938;42.658;23.248;2023-12-20T10:09:05;121.60;;;55.60;;
84713;SDS011;74938;42.658;23.248;2023-12-20T10:11:31;122.15;;;53.38;;
84713;SDS011;74938;42.658;23.248;2023-12-20T10:13:59;117.50;;;49.60;;
84713;SDS011;74938;42.658;23.248;2023-12-20T10:16:28;119.05;;;51.85;;
84713;SDS011;74938;42.658;23.248;2023-12-20T10:18:54;133.52;;;55.92;;
84713;SDS011;74938;42.658;23.248;2023-12-20T10:21:21;124.38;;;50.90;;
84713;SDS011;74938;42.658;23.248;2023-12-20T10:23:47;117.63;;;52.50;;
84713;SDS011;74938;42.658;23.248;2023-12-20T10:26:24;122.63;;;50.33;;
84713;SDS011;74938;42.658;23.248;2023-12-20T10:28:53;116.15;;;50.03;;
84713;SDS011;74938;42.658;23.248;2023-12-20T10:31:32;113.57;;;51.92;;
84713;SDS011;74938;42.658;23.248;2023-12-20T10:34:00;123.22;;;52.20;;
84713;SDS011;74938;42.658;23.248;2023-12-20T10:36:27;139.77;;;57.13;;
84713;SDS011;74938;42.658;23.248;2023-12-20T10:38:54;138.32;;;58.55;;
84713;SDS011;74938;42.658;23.248;2023-12-20T10:43:53;122.13;;;52.67;;
84713;SDS011;74938;42.658;23.248;2023-12-20T10:46:23;129.75;;;52.63;;
84713;SDS011;74938;42.658;23.248;2023-12-20T10:48:51;119.97;;;55.53;;
84713;SDS011;74938;42.658;23.248;2023-12-20T10:51:19;135.27;;;58.55;;
84713;SDS011;74938;42.658;23.248;2023-12-20T10:53:47;124.32;;;56.05;;
84713;SDS011;74938;42.658;23.248;2023-12-20T10:56:15;123.85;;;57.13;;
84713;SDS011;74938;42.658;23.248;2023-12-20T10:58:48;128.02;;;56.35;;
84713;SDS011;74938;42.658;23.248;2023-12-20T11:01:14;112.43;;;52.20;;
84713;SDS011;74938;42.658;23.248;2023-12-20T11:03:43;131.60;;;57.17;;
84713;SDS011;74938;42.658;23.248;2023-12-20T11:11:37;139.30;;;61.00;;
84713;SDS011;74938;42.658;23.248;2023-12-20T11:14:36;125.43;;;57.60;;
84713;SDS011;74938;42.658;23.248;2023-12-20T11:17:07;122.82;;;54.58;;
84713;SDS011;74938;42.658;23.248;2023-12-20T11:19:43;109.75;;;52.33;;
84713;SDS011;74938;42.658;23.248;2023-12-20T11:22:24;134.45;;;56.63;;
84713;SDS011;74938;42.658;23.248;2023-12-20T11:24:51;125.95;;;54.70;;
84713;SDS011;74938;42.658;23.248;2023-12-20T11:27:18;114.75;;;53.83;;
84713;SDS011;74938;42.658;23.248;2023-12-20T11:29:56;136.18;;;60.78;;
84713;SDS011;74938;42.658;23.248;2023-12-20T11:34:57;127.70;;;57.30;;
84713;SDS011;74938;42.658;23.248;2023-12-20T11:37:30;125.15;;;54.63;;
84713;SDS011;74938;42.658;23.248;2023-12-20T11:40:02;121.35;;;55.22;;
84713;SDS011;74938;42.658;23.248;2023-12-20T11:42:33;130.70;;;58.58;;
84713;SDS011;74938;42.658;23.248;2023-12-20T11:44:59;118.28;;;52.58;;
84713;SDS011;74938;42.658;23.248;2023-12-20T11:47:28;140.23;;;60.78;;
84713;SDS011;74938;42.658;23.248;2023-12-20T11:49:55;138.65;;;59.65;;
84713;SDS011;74938;42.658;23.248;2023-12-20T11:52:21;128.30;;;57.40;;
84713;SDS011;74938;42.658;23.248;2023-12-20T11:54:46;121.32;;;56.05;;
84713;SDS011;74938;42.658;23.248;2023-12-20T11:57:13;126.03;;;55.05;;
84713;SDS011;74938;42.658;23.248;2023-12-20T11:59:38;136.13;;;58.83;;
84713;SDS011;74938;42.658;23.248;2023-12-20T12:02:04;128.73;;;55.10;;
84713;SDS011;74938;42.658;23.248;2023-12-20T12:04:29;121.78;;;56.63;;
84713;SDS011;74938;42.658;23.248;2023-12-20T12:06:55;117.03;;;53.08;;
84713;SDS011;74938;42.658;23.248;2023-12-20T12:09:20;111.68;;;52.50;;
84713;SDS011;74938;42.658;23.248;2023-12-20T12:11:45;158.85;;;74.40;;
84713;SDS011;74938;42.658;23.248;2023-12-20T12:14:11;130.30;;;59.40;;
84713;SDS011;74938;42.658;23.248;2023-12-20T12:16:36;155.75;;;69.20;;
84713;SDS011;74938;42.658;23.248;2023-12-20T12:19:02;143.68;;;66.10;;
84713;SDS011;74938;42.658;23.248;2023-12-20T12:21:29;118.88;;;55.13;;
84713;SDS011;74938;42.658;23.248;2023-12-20T12:24:03;123.70;;;56.70;;
84713;SDS011;74938;42.658;23.248;2023-12-20T12:26:31;126.25;;;54.67;;
84713;SDS011;74938;42.658;23.248;2023-12-20T12:28:57;113.30;;;54.75;;
84713;SDS011;74938;42.658;23.248;2023-12-20T12:31:22;118.82;;;51.88;;
84713;SDS011;74938;42.658;23.248;2023-12-20T12:33:50;133.77;;;61.25;;
84713;SDS011;74938;42.658;23.248;2023-12-20T12:36:16;120.15;;;55.95;;
84713;SDS011;74938;42.658;23.248;2023-12-20T12:38:42;132.05;;;58.60;;
84713;SDS011;74938;42.658;23.248;2023-12-20T12:41:08;134.77;;;59.03;;
84713;SDS011;74938;42.658;23.248;2023-12-20T12:43:35;129.68;;;55.60;;
84713;SDS011;74938;42.658;23.248;2023-12-20T12:46:00;132.38;;;58.85;;
84713;SDS011;74938;42.658;23.248;2023-12-20T12:48:26;145.68;;;65.22;;
84713;SDS011;74938;42.658;23.248;2023-12-20T12:50:53;127.90;;;53.92;;
84713;SDS011;74938;42.658;23.248;2023-12-20T12:53:19;133.52;;;56.45;;
84713;SDS011;74938;42.658;23.248;2023-12-20T12:55:44;140.80;;;60.92;;
84713;SDS011;74938;42.658;23.248;2023-12-20T12:58:11;117.78;;;54.83;;
84713;SDS011;74938;42.658;23.248;2023-12-20T13:00:36;121.07;;;50.33;;
84713;SDS011;74938;42.658;23.248;2023-12-20T13:03:02;122.65;;;53.33;;
84713;SDS011;74938;42.658;23.248;2023-12-20T13:05:29;113.40;;;51.38;;
84713;SDS011;74938;42.658;23.248;2023-12-20T13:07:55;116.10;;;49.47;;
84713;SDS011;74938;42.658;23.248;2023-12-20T13:10:21;110.97;;;48.47;;
84713;SDS011;74938;42.658;23.248;2023-12-20T13:12:46;117.43;;;51.17;;
84713;SDS011;74938;42.658;23.248;2023-12-20T13:15:12;118.95;;;51.47;;
84713;SDS011;74938;42.658;23.248;2023-12-20T13:17:37;107.70;;;47.70;;
84713;SDS011;74938;42.658;23.248;2023-12-20T13:20:03;122.63;;;51.97;;
84713;SDS011;74938;42.658;23.248;2023-12-20T13:22:28;117.00;;;48.63;;
84713;SDS011;74938;42.658;23.248;2023-12-20T13:24:54;106.82;;;46.92;;
84713;SDS011;74938;42.658;23.248;2023-12-20T13:27:19;108.63;;;48.30;;
84713;SDS011;74938;42.658;23.248;2023-12-20T13:29:45;106.05;;;45.47;;
84713;SDS011;74938;42.658;23.248;2023-12-20T13:32:10;104.90;;;44.95;;
84713;SDS011;74938;42.658;23.248;2023-12-20T13:34:35;106.13;;;44.17;;
84713;SDS011;74938;42.658;23.248;2023-12-20T13:37:01;98.38;;;46.28;;
84713;SDS011;74938;42.658;23.248;2023-12-20T13:39:26;101.50;;;46.20;;
84713;SDS011;74938;42.658;23.248;2023-12-20T13:41:52;105.68;;;49.13;;
84713;SDS011;74938;42.658;23.248;2023-12-20T13:44:18;122.22;;;51.83;;
84713;SDS011;74938;42.658;23.248;2023-12-20T13:46:43;107.75;;;48.15;;
84713;SDS011;74938;42.658;23.248;2023-12-20T13:49:10;106.75;;;46.25;;
84713;SDS011;74938;42.658;23.248;2023-12-20T13:51:37;117.18;;;48.85;;
84713;SDS011;74938;42.658;23.248;2023-12-20T13:54:03;117.88;;;47.53;;
84713;SDS011;74938;42.658;23.248;2023-12-20T13:56:29;119.75;;;50.58;;
84713;SDS011;74938;42.658;23.248;2023-12-20T13:58:54;111.70;;;49.38;;
84713;SDS011;74938;42.658;23.248;2023-12-20T14:01:19;118.43;;;50.75;;
84713;SDS011;74938;42.658;23.248;2023-12-20T14:03:45;115.43;;;49.65;;
84713;SDS011;74938;42.658;23.248;2023-12-20T14:06:10;126.28;;;48.42;;
84713;SDS011;74938;42.658;23.248;2023-12-20T14:08:35;149.00;;;61.60;;
84713;SDS011;74938;42.658;23.248;2023-12-20T14:11:01;328.73;;;120.05;;
84713;SDS011;74938;42.658;23.248;2023-12-20T14:13:26;247.93;;;97.07;;
84713;SDS011;74938;42.658;23.248;2023-12-20T14:15:52;153.27;;;61.30;;
84713;SDS011;74938;42.658;23.248;2023-12-20T14:18:19;137.02;;;53.50;;